Time;durP1;ratioP1;P1;durP2;ratioP2;P2;SDS_P1;SDS_P2;PMS_P1;PMS_P2;Temp;Humidity;BMP_temperature;BMP_pressure;BME280_temperature;BME280_humidity;BME280_pressure;Samples;Min_cycle;Max_cycle;Signal;HPM_P1;HPM_P2
2022/02/08 00:02:16;;;;;;;;;;;19.70;56.20;;;;;;5033205;28;1353;-66
2022/02/08 00:04:41;;;;;;;;;;;19.70;56.30;;;;;;5033193;28;1413;-67
2022/02/08 00:07:09;;;;;;;;;;;19.70;56.30;;;;;;5033234;28;1366;-66
2022/02/08 00:09:34;;;;;;;;;;;19.60;56.30;;;;;;5033119;28;1698;-67
2022/02/08 00:12:00;;;;;;;;;;;19.60;56.30;;;;;;5033095;28;1658;-67
2022/02/08 00:14:25;;;;;;;;;;;19.60;56.40;;;;;;5032373;28;1466;-66
2022/02/08 00:16:51;;;;;;;;;;;19.60;56.40;;;;;;5033250;28;1403;-67
2022/02/08 00:19:17;;;;;;;;;;;19.60;56.40;;;;;;5032751;28;1891;-66
2022/02/08 00:21:42;;;;;;;;;;;19.60;56.40;;;;;;5033248;28;1647;-66
2022/02/08 00:24:08;;;;;;;;;;;19.60;56.50;;;;;;5033046;28;1366;-66
2022/02/08 00:26:33;;;;;;;;;;;19.60;56.50;;;;;;5033065;28;1821;-67
2022/02/08 00:28:59;;;;;;;;;;;19.60;56.50;;;;;;5029478;28;1443;-67
2022/02/08 00:31:24;;;;;;;;;;;19.60;56.50;;;;;;5023083;28;1331;-66
2022/02/08 00:33:50;;;;;;;;;;;19.50;57.10;;;;;;5032911;28;1455;-67
2022/02/08 00:36:15;;;;;;;;;;;19.50;56.60;;;;;;5032847;28;1840;-67
2022/02/08 00:38:41;;;;;;;;;;;19.50;56.60;;;;;;5031397;28;1906;-67
2022/02/08 00:41:06;;;;;;;;;;;19.50;56.60;;;;;;5032737;28;1412;-66
2022/02/08 00:43:39;;;;;;;;;;;19.50;56.70;;;;;;5030956;28;1397;-67
2022/02/08 00:46:11;;;;;;;;;;;19.50;56.70;;;;;;5032959;28;1313;-68
2022/02/08 00:48:42;;;;;;;;;;;19.50;56.70;;;;;;5036790;28;1737;-68
2022/02/08 00:51:08;;;;;;;;;;;19.50;56.70;;;;;;5035777;28;1377;-67
2022/02/08 00:53:33;;;;;;;;;;;19.50;56.80;;;;;;5052491;28;1754;-67
2022/02/08 00:55:59;;;;;;;;;;;19.50;56.80;;;;;;5035076;28;1698;-67
2022/02/08 00:58:24;;;;;;;;;;;19.50;56.80;;;;;;5036143;28;1914;-67
2022/02/08 01:00:50;;;;;;;;;;;19.50;56.80;;;;;;5036276;28;1350;-67
2022/02/08 01:03:18;;;;;;;;;;;19.40;56.80;;;;;;5036339;28;1370;-67
2022/02/08 01:05:49;;;;;;;;;;;19.40;56.90;;;;;;5034956;28;1425;-67
2022/02/08 01:08:14;;;;;;;;;;;19.40;56.90;;;;;;5035520;28;1629;-67
2022/02/08 01:10:41;;;;;;;;;;;19.40;56.90;;;;;;5033969;28;1704;-67
2022/02/08 01:13:07;;;;;;;;;;;19.40;56.90;;;;;;5035815;28;1638;-66
2022/02/08 01:15:32;;;;;;;;;;;19.40;57.00;;;;;;5036040;28;1286;-67
2022/02/08 01:17:59;;;;;;;;;;;19.40;57.00;;;;;;5036056;28;1436;-67
2022/02/08 01:20:33;;;;;;;;;;;19.40;57.00;;;;;;5034441;28;1981;-68
2022/02/08 01:23:02;;;;;;;;;;;19.40;57.00;;;;;;5050184;28;1752;-67
2022/02/08 01:25:32;;;;;;;;;;;19.40;57.10;;;;;;5034879;28;1373;-67
2022/02/08 01:28:06;;;;;;;;;;;19.40;57.10;;;;;;5035836;28;1494;-67
2022/02/08 01:30:45;;;;;;;;;;;19.40;57.10;;;;;;5034298;28;1539;-67
2022/02/08 01:38:10;;;;;;;;;;;19.30;57.10;;;;;;5036351;28;1351;-66
2022/02/08 01:41:08;;;;;;;;;;;19.40;57.30;;;;;;5030689;28;1972;-67
2022/02/08 01:46:36;;;;;;;;;;;19.50;57.30;;;;;;5019742;28;1404;-66
2022/02/08 01:49:15;;;;;;;;;;;19.50;57.40;;;;;;5044231;28;1412;-67
2022/02/08 01:51:40;;;;;;;;;;;19.60;57.40;;;;;;5029009;28;1395;-67
2022/02/08 01:54:06;;;;;;;;;;;19.60;57.50;;;;;;5043468;28;1196;-67
2022/02/08 01:56:31;;;;;;;;;;;19.60;57.50;;;;;;5028343;28;1211;-67
2022/02/08 01:58:57;;;;;;;;;;;19.60;57.60;;;;;;5035054;28;1961;-66
2022/02/08 02:01:22;;;;;;;;;;;19.60;57.70;;;;;;5035673;28;1363;-67
2022/02/08 02:03:47;;;;;;;;;;;19.60;57.70;;;;;;5035650;28;1533;-68
2022/02/08 02:06:13;;;;;;;;;;;19.60;57.90;;;;;;5035459;28;1544;-67
2022/02/08 02:08:38;;;;;;;;;;;19.60;58.00;;;;;;5035216;28;1352;-67
2022/02/08 02:11:04;;;;;;;;;;;19.60;58.00;;;;;;5035467;28;1596;-67
2022/02/08 02:13:41;;;;;;;;;;;19.60;58.00;;;;;;5035508;28;1159;-67
2022/02/08 02:16:08;;;;;;;;;;;19.60;58.00;;;;;;5034322;28;1724;-68
2022/02/08 02:18:34;;;;;;;;;;;19.60;58.10;;;;;;5035148;28;1957;-67
2022/02/08 02:20:59;;;;;;;;;;;19.60;58.10;;;;;;5017613;28;1611;-67
2022/02/08 02:23:25;;;;;;;;;;;19.60;58.10;;;;;;5035117;28;1279;-66
2022/02/08 02:25:50;;;;;;;;;;;19.60;58.20;;;;;;5035100;28;1435;-65
2022/02/08 02:28:15;;;;;;;;;;;19.60;58.20;;;;;;5035216;28;1256;-67
2022/02/08 02:30:41;;;;;;;;;;;19.60;58.20;;;;;;5035006;28;1509;-67
2022/02/08 02:33:07;;;;;;;;;;;19.60;58.30;;;;;;5035174;28;1672;-66
2022/02/08 02:35:33;;;;;;;;;;;19.60;58.40;;;;;;5034992;28;1597;-66
2022/02/08 02:37:59;;;;;;;;;;;19.60;58.40;;;;;;5033797;28;1656;-66
2022/02/08 02:40:25;;;;;;;;;;;19.60;58.30;;;;;;5034654;28;1906;-67
2022/02/08 02:42:51;;;;;;;;;;;19.60;58.30;;;;;;5034961;28;1331;-66
2022/02/08 02:45:19;;;;;;;;;;;19.70;58.60;;;;;;5033385;28;1856;-66
2022/02/08 02:47:45;;;;;;;;;;;19.60;58.50;;;;;;5049981;28;1365;-65
2022/02/08 02:50:10;;;;;;;;;;;19.60;58.50;;;;;;5034407;28;1368;-67
2022/02/08 02:52:35;;;;;;;;;;;19.70;58.60;;;;;;5034707;28;1655;-66
2022/02/08 02:55:01;;;;;;;;;;;19.70;58.60;;;;;;5034598;28;1477;-66
2022/02/08 02:57:27;;;;;;;;;;;19.70;58.70;;;;;;5033417;28;1384;-67
2022/02/08 03:00:02;;;;;;;;;;;19.70;58.70;;;;;;5034342;28;1910;-66
2022/02/08 03:02:44;;;;;;;;;;;19.70;58.80;;;;;;5034532;28;1757;-66
2022/02/08 03:18:44;;;;;;;;;;;19.70;58.70;;;;;;5018163;28;1954;-67
2022/02/08 03:21:10;;;;;;;;;;;19.70;58.60;;;;;;5034306;28;1606;-66
2022/02/08 03:23:35;;;;;;;;;;;19.70;58.70;;;;;;5032907;28;1624;-66
2022/02/08 03:26:01;;;;;;;;;;;19.70;58.70;;;;;;5033861;28;1504;-67
2022/02/08 03:28:26;;;;;;;;;;;19.70;58.80;;;;;;5033929;28;1614;-65
2022/02/08 03:30:52;;;;;;;;;;;19.70;58.70;;;;;;5034023;28;1415;-66
2022/02/08 03:33:18;;;;;;;;;;;19.70;58.80;;;;;;5033963;28;1436;-66
2022/02/08 03:35:46;;;;;;;;;;;19.70;58.80;;;;;;5032560;28;1756;-67
2022/02/08 03:38:14;;;;;;;;;;;19.70;58.80;;;;;;5033688;28;1439;-65
2022/02/08 03:40:45;;;;;;;;;;;19.70;58.90;;;;;;5033546;28;1902;-67
2022/02/08 03:43:17;;;;;;;;;;;19.70;58.90;;;;;;5033864;28;1581;-65
2022/02/08 03:45:49;;;;;;;;;;;19.70;58.90;;;;;;5029335;28;1665;-66
2022/02/08 03:48:17;;;;;;;;;;;19.70;58.90;;;;;;5028961;28;1445;-67
2022/02/08 03:50:45;;;;;;;;;;;19.70;58.90;;;;;;5032475;28;1756;-67
2022/02/08 03:53:10;;;;;;;;;;;19.70;59.00;;;;;;5033628;28;1740;-67
2022/02/08 03:55:35;;;;;;;;;;;19.70;59.10;;;;;;5033210;28;1402;-66
2022/02/08 03:58:01;;;;;;;;;;;19.70;59.10;;;;;;5033571;28;1414;-67
2022/02/08 04:00:31;;;;;;;;;;;19.70;59.20;;;;;;5033244;28;1934;-67
2022/02/08 04:02:57;;;;;;;;;;;19.70;59.20;;;;;;5034125;28;1695;-66
2022/02/08 04:05:34;;;;;;;;;;;19.70;59.20;;;;;;5033122;28;1361;-66
2022/02/08 04:08:04;;;;;;;;;;;19.70;59.30;;;;;;5033375;28;1485;-66
2022/02/08 04:10:31;;;;;;;;;;;19.70;59.40;;;;;;5033279;28;1386;-66
2022/02/08 04:13:23;;;;;;;;;;;19.70;59.50;;;;;;5032109;28;1457;-67
2022/02/08 04:32:23;;;;;;;;;;;19.60;59.70;;;;;;5033072;28;1618;-67
2022/02/08 04:35:10;;;;;;;;;;;19.60;59.80;;;;;;5033228;28;1585;-66
2022/02/08 04:42:47;;;;;;;;;;;19.60;59.90;;;;;;5033039;28;1437;-67
2022/02/08 04:50:27;;;;;;;;;;;19.60;60.10;;;;;;5027152;28;2661;-66
2022/02/08 04:52:57;;;;;;;;;;;19.60;60.10;;;;;;5028344;28;2199;-67
2022/02/08 04:58:08;;;;;;;;;;;19.60;61.00;;;;;;5030949;28;1534;-67
2022/02/08 05:00:41;;;;;;;;;;;19.70;60.10;;;;;;5032624;28;1967;-68
2022/02/08 05:35:41;;;;;;;;;;;20.00;59.20;;;;;;5036159;28;1325;-68
2022/02/08 05:41:34;;;;;;;;;;;20.10;59.30;;;;;;5049163;28;1953;-69
2022/02/08 05:44:01;;;;;;;;;;;20.10;59.30;;;;;;5035793;28;1436;-69
2022/02/08 05:49:06;;;;;;;;;;;20.20;59.20;;;;;;5045498;28;1513;-70
2022/02/08 05:52:22;;;;;;;;;;;20.20;59.20;;;;;;5054608;28;1383;-74
2022/02/08 05:54:20;;;;;;;;;;;20.20;59.10;;;;;;5046486;28;1393;-74
2022/02/08 05:56:53;;;;;;;;;;;20.20;59.20;;;;;;5037287;28;1796;-72
2022/02/08 05:59:20;;;;;;;;;;;20.20;59.10;;;;;;5037328;28;1902;-72
2022/02/08 06:01:45;;;;;;;;;;;20.20;59.00;;;;;;5036691;28;1620;-68
2022/02/08 06:04:12;;;;;;;;;;;20.20;59.00;;;;;;5054368;28;1315;-68
2022/02/08 06:06:37;;;;;;;;;;;20.20;59.00;;;;;;5054332;28;1653;-70
2022/02/08 06:09:02;;;;;;;;;;;20.20;59.10;;;;;;5053497;28;3501;-70
2022/02/08 06:11:28;;;;;;;;;;;20.20;58.90;;;;;;5037216;28;1509;-77
2022/02/08 06:13:54;;;;;;;;;;;20.20;59.00;;;;;;5055952;28;1688;-73
2022/02/08 06:16:21;;;;;;;;;;;20.20;59.10;;;;;;5054655;28;1436;-75
2022/02/08 06:18:47;;;;;;;;;;;20.20;59.10;;;;;;5019610;28;1945;-76
2022/02/08 06:21:12;;;;;;;;;;;20.20;59.10;;;;;;5053041;28;1209;-69
2022/02/08 06:23:37;;;;;;;;;;;20.20;59.00;;;;;;5028249;28;1681;-70
2022/02/08 06:26:03;;;;;;;;;;;20.20;59.10;;;;;;5036476;28;1597;-69
2022/02/08 06:28:29;;;;;;;;;;;20.30;59.20;;;;;;5035914;28;1692;-69
2022/02/08 06:30:54;;;;;;;;;;;20.30;59.20;;;;;;5035627;28;1545;-70
2022/02/08 06:33:21;;;;;;;;;;;20.30;59.30;;;;;;5053824;28;1631;-73
2022/02/08 06:35:46;;;;;;;;;;;20.30;59.20;;;;;;5025320;28;1406;-70
2022/02/08 06:38:14;;;;;;;;;;;20.30;59.20;;;;;;5036112;28;1570;-70
2022/02/08 06:40:41;;;;;;;;;;;20.30;59.20;;;;;;5019977;28;1894;-69
2022/02/08 06:43:07;;;;;;;;;;;20.30;59.20;;;;;;5036206;28;1762;-74
2022/02/08 06:45:33;;;;;;;;;;;20.30;59.30;;;;;;5053497;28;1433;-75
2022/02/08 06:47:58;;;;;;;;;;;20.30;59.20;;;;;;5019690;28;1327;-72
2022/02/08 06:50:24;;;;;;;;;;;20.30;59.10;;;;;;5035188;28;1615;-72
2022/02/08 06:52:49;;;;;;;;;;;20.30;59.10;;;;;;5056491;28;907;-72
2022/02/08 06:55:15;;;;;;;;;;;20.30;59.20;;;;;;5041071;28;1193;-72
2022/02/08 06:58:30;;;;;;;;;;;20.30;59.20;;;;;;5021463;28;1641;-72
2022/02/08 07:00:34;;;;;;;;;;;20.30;59.10;;;;;;5038208;28;1964;-68
2022/02/08 07:03:01;;;;;;;;;;;20.30;59.20;;;;;;5036379;28;1370;-70
2022/02/08 07:05:27;;;;;;;;;;;20.30;59.20;;;;;;5035867;28;1369;-70
2022/02/08 07:07:52;;;;;;;;;;;20.30;59.20;;;;;;5035500;28;1210;-70
2022/02/08 07:10:18;;;;;;;;;;;20.30;59.20;;;;;;5052807;28;1630;-69
2022/02/08 07:12:44;;;;;;;;;;;20.20;59.20;;;;;;5035227;28;1339;-69
2022/02/08 07:15:13;;;;;;;;;;;20.20;59.20;;;;;;5053345;28;1398;-73
2022/02/08 07:17:39;;;;;;;;;;;20.30;59.60;;;;;;5035383;28;1442;-75
2022/02/08 07:20:05;;;;;;;;;;;20.30;59.40;;;;;;5034771;28;1887;-74
2022/02/08 07:22:31;;;;;;;;;;;20.30;59.40;;;;;;5035406;28;1489;-74
2022/02/08 07:24:58;;;;;;;;;;;20.30;59.40;;;;;;5053136;28;1385;-74
2022/02/08 07:27:24;;;;;;;;;;;20.30;59.50;;;;;;5053307;28;1350;-74
2022/02/08 07:29:52;;;;;;;;;;;20.30;59.40;;;;;;5040389;28;2087;-74
2022/02/08 07:32:19;;;;;;;;;;;20.30;59.40;;;;;;5051308;28;1512;-72
2022/02/08 07:34:50;;;;;;;;;;;20.30;59.50;;;;;;5027497;28;1346;-73
2022/02/08 07:37:21;;;;;;;;;;;20.30;59.50;;;;;;5047408;28;2142;-73
2022/02/08 07:39:52;;;;;;;;;;;20.30;59.50;;;;;;5034613;28;1902;-72
2022/02/08 07:42:18;;;;;;;;;;;20.30;59.50;;;;;;5052406;28;1594;-72
2022/02/08 07:44:43;;;;;;;;;;;20.20;59.40;;;;;;5052917;28;1353;-71
2022/02/08 07:47:09;;;;;;;;;;;20.30;60.00;;;;;;5034688;28;1372;-72
2022/02/08 07:49:38;;;;;;;;;;;20.30;59.40;;;;;;5052021;28;1328;-74
2022/02/08 07:52:04;;;;;;;;;;;20.30;59.50;;;;;;5052541;28;1750;-73
2022/02/08 07:54:29;;;;;;;;;;;20.30;59.50;;;;;;5035219;28;1884;-73
2022/02/08 07:56:54;;;;;;;;;;;20.30;59.50;;;;;;5050742;28;2133;-71
2022/02/08 07:59:20;;;;;;;;;;;20.30;59.70;;;;;;5026954;28;1963;-71
2022/02/08 08:01:45;;;;;;;;;;;20.30;59.50;;;;;;5050046;28;1340;-72
2022/02/08 08:04:11;;;;;;;;;;;20.40;59.50;;;;;;5051460;28;1607;-71
2022/02/08 08:06:36;;;;;;;;;;;20.50;59.50;;;;;;5052563;28;1674;-71
2022/02/08 08:09:02;;;;;;;;;;;20.50;59.30;;;;;;5052044;28;1622;-71
2022/02/08 08:11:35;;;;;;;;;;;20.60;59.10;;;;;;5052823;28;1452;-71
2022/02/08 08:14:02;;;;;;;;;;;20.70;58.90;;;;;;5053067;28;1224;-70
2022/02/08 08:19:00;;;;;;;;;;;21.00;58.50;;;;;;5049303;28;1906;-71
2022/02/08 08:21:26;;;;;;;;;;;21.10;58.30;;;;;;5023592;28;1370;-71
2022/02/08 08:23:51;;;;;;;;;;;21.20;58.10;;;;;;5034640;28;1460;-71
2022/02/08 08:26:17;;;;;;;;;;;21.20;57.80;;;;;;5034043;28;1330;-71
2022/02/08 08:28:42;;;;;;;;;;;21.30;57.60;;;;;;5034231;28;1072;-71
2022/02/08 08:31:08;;;;;;;;;;;21.40;57.50;;;;;;5034248;28;1072;-71
2022/02/08 08:33:33;;;;;;;;;;;21.40;57.30;;;;;;5034819;28;1049;-71
2022/02/08 08:35:59;;;;;;;;;;;21.50;57.10;;;;;;5040982;28;1292;-71
2022/02/08 08:38:26;;;;;;;;;;;21.60;57.00;;;;;;5051626;28;1130;-71
2022/02/08 08:53:22;;;;;;;;;;;21.80;56.50;;;;;;5052998;28;1291;-71
2022/02/08 08:55:48;;;;;;;;;;;21.90;56.50;;;;;;5034923;28;1401;-72
2022/02/08 08:58:13;;;;;;;;;;;21.90;56.50;;;;;;5051996;28;1663;-72
2022/02/08 09:00:39;;;;;;;;;;;21.90;56.50;;;;;;5034406;28;1906;-71
2022/02/08 09:03:04;;;;;;;;;;;21.90;56.50;;;;;;5051805;28;1334;-71
2022/02/08 09:05:30;;;;;;;;;;;21.90;56.60;;;;;;5052303;28;1486;-71
2022/02/08 09:07:55;;;;;;;;;;;21.90;56.60;;;;;;5036182;28;1439;-71
2022/02/08 09:10:26;;;;;;;;;;;21.90;56.60;;;;;;5037817;28;1445;-71
2022/02/08 09:13:06;;;;;;;;;;;21.90;56.60;;;;;;5035826;28;2141;-71
2022/02/08 09:15:51;;;;;;;;;;;21.90;56.70;;;;;;5054335;28;1388;-71
2022/02/08 09:21:22;;;;;;;;;;;21.90;56.80;;;;;;5055905;28;1906;-71
2022/02/08 09:26:33;;;;;;;;;;;21.80;56.90;;;;;;5049147;28;1286;-72
2022/02/08 09:29:05;;;;;;;;;;;21.80;57.00;;;;;;5038074;28;1294;-72
2022/02/08 09:31:32;;;;;;;;;;;21.80;57.00;;;;;;5054838;28;1087;-72
2022/02/08 09:33:57;;;;;;;;;;;21.80;57.10;;;;;;5035775;28;1328;-72
2022/02/08 09:36:24;;;;;;;;;;;21.70;57.10;;;;;;5045310;28;1381;-72
2022/02/08 09:38:53;;;;;;;;;;;21.70;57.20;;;;;;5017370;28;1943;-72
2022/02/08 09:41:19;;;;;;;;;;;21.70;57.40;;;;;;5036685;28;1342;-72
2022/02/08 09:43:45;;;;;;;;;;;21.70;57.60;;;;;;5054562;28;1084;-72
2022/02/08 09:46:11;;;;;;;;;;;21.70;57.70;;;;;;5019494;28;1300;-71
2022/02/08 09:51:02;;;;;;;;;;;21.60;58.20;;;;;;5036684;28;1108;-72
2022/02/08 09:53:31;;;;;;;;;;;21.60;58.20;;;;;;5018967;28;1324;-71
2022/02/08 09:55:57;;;;;;;;;;;21.60;58.10;;;;;;5036476;28;1371;-71
2022/02/08 09:58:22;;;;;;;;;;;21.50;58.20;;;;;;5018634;28;1211;-71
2022/02/08 10:00:48;;;;;;;;;;;21.50;58.30;;;;;;5054173;28;1914;-71
2022/02/08 10:03:16;;;;;;;;;;;21.50;58.50;;;;;;5036010;28;1418;-71
2022/02/08 10:05:51;;;;;;;;;;;21.50;58.70;;;;;;5036229;28;1233;-71
2022/02/08 10:08:17;;;;;;;;;;;21.40;58.70;;;;;;5052957;28;1306;-70
2022/02/08 10:10:45;;;;;;;;;;;21.40;58.70;;;;;;5053921;28;1406;-71
2022/02/08 10:24:01;;;;;;;;;;;21.40;58.90;;;;;;5037995;28;2196;-72
2022/02/08 10:26:39;;;;;;;;;;;21.40;58.80;;;;;;5032246;28;2190;-72
2022/02/08 10:29:12;;;;;;;;;;;21.40;58.80;;;;;;5050146;28;1131;-72
2022/02/08 10:39:57;;;;;;;;;;;21.40;58.80;;;;;;5038536;28;1898;-71
2022/02/08 10:42:23;;;;;;;;;;;21.40;58.80;;;;;;5036509;28;1304;-72
2022/02/08 10:44:48;;;;;;;;;;;21.40;58.80;;;;;;5054704;28;1372;-71
2022/02/08 10:47:14;;;;;;;;;;;21.40;58.80;;;;;;5035964;28;1091;-72
2022/02/08 10:49:39;;;;;;;;;;;21.30;58.80;;;;;;5036115;28;1325;-71
2022/02/08 10:52:09;;;;;;;;;;;21.30;58.90;;;;;;5036251;28;1158;-72
2022/02/08 10:54:44;;;;;;;;;;;21.30;59.00;;;;;;5054316;28;1071;-71
2022/02/08 10:57:15;;;;;;;;;;;21.30;59.10;;;;;;5037927;28;1298;-71
2022/02/08 10:59:50;;;;;;;;;;;21.30;59.20;;;;;;5037399;28;1969;-71
2022/02/08 11:02:23;;;;;;;;;;;21.20;59.20;;;;;;5030631;28;1435;-70
2022/02/08 11:05:10;;;;;;;;;;;21.20;59.20;;;;;;5051266;28;1370;-71
2022/02/08 11:10:11;;;;;;;;;;;21.20;59.30;;;;;;5053394;28;1079;-72
2022/02/08 11:12:47;;;;;;;;;;;21.20;59.30;;;;;;5018339;28;2209;-72
2022/02/08 11:18:44;;;;;;;;;;;21.10;59.30;;;;;;5041676;28;1334;-71
2022/02/08 11:21:26;;;;;;;;;;;21.10;59.40;;;;;;5038014;28;1965;-71
2022/02/08 11:26:33;;;;;;;;;;;21.10;59.40;;;;;;5036192;28;1221;-71
2022/02/08 11:29:35;;;;;;;;;;;21.10;59.40;;;;;;5029635;28;1144;-70
2022/02/08 11:32:20;;;;;;;;;;;21.10;59.40;;;;;;5032747;28;1279;-71
2022/02/08 11:43:37;;;;;;;;;;;21.10;59.70;;;;;;5053178;28;1318;-73
2022/02/08 11:49:12;;;;;;;;;;;21.10;59.70;;;;;;5045191;28;1487;-69
2022/02/08 11:51:41;;;;;;;;;;;21.10;59.80;;;;;;5048038;28;1257;-68
2022/02/08 11:54:30;;;;;;;;;;;21.10;59.80;;;;;;5043475;28;1184;-67
2022/02/08 12:09:29;;;;;;;;;;;21.00;55.30;;;;;;5022661;28;1259;-70
2022/02/08 12:12:15;;;;;;;;;;;20.90;54.60;;;;;;5024373;28;1200;-70
2022/02/08 12:31:26;;;;;;;;;;;20.80;52.00;;;;;;5043875;28;1139;-69
2022/02/08 12:34:01;;;;;;;;;;;20.80;52.00;;;;;;5031959;28;1326;-69
2022/02/08 12:39:42;;;;;;;;;;;20.80;51.80;;;;;;5023213;28;1375;-70
2022/02/08 12:48:21;;;;;;;;;;;20.80;51.50;;;;;;5031326;28;1906;-70
2022/02/08 12:56:29;;;;;;;;;;;20.70;50.30;;;;;;5038817;28;1313;-68
2022/02/08 13:04:35;;;;;;;;;;;20.60;50.10;;;;;;5027786;28;1231;-68
2022/02/08 14:12:45;;;;;;;;;;;20.10;51.60;;;;;;5023937;28;1268;-69
2022/02/08 14:15:42;;;;;;;;;;;20.10;51.70;;;;;;5022881;28;1266;-69
2022/02/08 14:18:04;;;;;;;;;;;20.10;51.80;;;;;;5018655;28;1167;-69
2022/02/08 14:20:45;;;;;;;;;;;20.10;52.00;;;;;;5022932;28;1973;-69
2022/02/08 14:23:29;;;;;;;;;;;20.10;52.10;;;;;;5023240;28;1317;-68
2022/02/08 14:31:36;;;;;;;;;;;20.10;52.40;;;;;;5020370;28;1136;-67
2022/02/08 14:36:58;;;;;;;;;;;20.10;52.60;;;;;;5027697;28;1437;-67
2022/02/08 14:59:46;;;;;;;;;;;20.10;53.20;;;;;;5020055;28;998;-69
2022/02/08 15:09:38;;;;;;;;;;;20.10;53.40;;;;;;5033147;28;960;-69
2022/02/08 15:12:14;;;;;;;;;;;20.10;53.40;;;;;;5032026;28;1336;-68
2022/02/08 15:14:49;;;;;;;;;;;20.00;53.40;;;;;;5032413;28;1087;-67
2022/02/08 15:17:14;;;;;;;;;;;20.10;53.50;;;;;;5031817;28;1355;-68
2022/02/08 15:19:42;;;;;;;;;;;20.00;53.60;;;;;;5031034;28;1898;-66
2022/02/08 15:22:08;;;;;;;;;;;20.00;53.60;;;;;;5032939;28;1254;-66
2022/02/08 15:24:35;;;;;;;;;;;20.10;53.70;;;;;;5031409;28;1359;-66
2022/02/08 15:27:00;;;;;;;;;;;20.00;53.80;;;;;;5032644;28;1322;-68
2022/02/08 15:29:27;;;;;;;;;;;20.00;54.40;;;;;;5037980;28;1357;-65
2022/02/08 15:31:54;;;;;;;;;;;20.00;53.90;;;;;;5039345;28;1090;-68
2022/02/08 15:34:20;;;;;;;;;;;20.00;53.90;;;;;;5032466;28;1272;-69
2022/02/08 15:36:45;;;;;;;;;;;20.00;53.90;;;;;;5032829;28;1372;-69
2022/02/08 15:39:11;;;;;;;;;;;20.00;54.00;;;;;;5031515;28;1914;-68
2022/02/08 15:41:40;;;;;;;;;;;20.00;54.10;;;;;;5032428;28;1040;-70
2022/02/08 15:44:10;;;;;;;;;;;20.00;54.10;;;;;;5032379;28;1370;-69
2022/02/08 15:46:36;;;;;;;;;;;20.00;54.20;;;;;;5031666;28;1256;-69
2022/02/08 15:49:01;;;;;;;;;;;20.00;54.20;;;;;;5030316;28;1126;-67
2022/02/08 16:05:32;;;;;;;;;;;20.00;54.50;;;;;;5031957;28;1384;-68
2022/02/08 16:08:03;;;;;;;;;;;19.90;54.50;;;;;;5031913;28;1300;-68
2022/02/08 16:10:40;;;;;;;;;;;19.90;54.50;;;;;;5031783;28;1326;-68
2022/02/08 16:16:45;;;;;;;;;;;19.90;54.60;;;;;;5031638;28;1294;-68
2022/02/08 16:24:16;;;;;;;;;;;19.90;54.80;;;;;;5024871;28;886;-68
2022/02/08 16:26:58;;;;;;;;;;;19.90;54.80;;;;;;5031548;28;1297;-69
2022/02/08 16:30:04;;;;;;;;;;;19.90;54.80;;;;;;5037318;28;1056;-69
2022/02/08 16:54:28;;;;;;;;;;;19.90;55.10;;;;;;5021409;28;1129;-66
2022/02/08 16:57:05;;;;;;;;;;;19.90;55.20;;;;;;5008069;28;1351;-68
2022/02/08 16:59:36;;;;;;;;;;;19.90;55.20;;;;;;5008527;28;1926;-68
2022/02/08 17:02:05;;;;;;;;;;;19.90;55.20;;;;;;5011627;28;1330;-69
2022/02/08 17:04:30;;;;;;;;;;;19.90;55.20;;;;;;5029481;28;1336;-66
2022/02/08 17:06:56;;;;;;;;;;;19.90;55.20;;;;;;5029991;28;1412;-68
2022/02/08 17:12:21;;;;;;;;;;;19.80;55.30;;;;;;5031146;28;1068;-67
2022/02/08 17:17:44;;;;;;;;;;;19.80;55.30;;;;;;5029779;28;1308;-68
2022/02/08 17:47:43;;;;;;;;;;;19.80;55.60;;;;;;5021742;28;1349;-67
2022/02/08 17:50:10;;;;;;;;;;;19.80;55.60;;;;;;5032073;28;1309;-70
2022/02/08 17:52:36;;;;;;;;;;;19.80;55.60;;;;;;5033004;28;1087;-68
2022/02/08 17:55:01;;;;;;;;;;;19.80;55.60;;;;;;5032633;28;1283;-68
2022/02/08 17:57:27;;;;;;;;;;;19.80;55.60;;;;;;5033396;28;1180;-68
2022/02/08 17:59:54;;;;;;;;;;;19.80;56.20;;;;;;5031881;28;1977;-67
2022/02/08 18:02:21;;;;;;;;;;;19.80;55.60;;;;;;5027685;28;1091;-69
2022/02/08 18:04:47;;;;;;;;;;;19.80;55.70;;;;;;5028175;28;1119;-69
2022/02/08 18:07:17;;;;;;;;;;;19.80;55.70;;;;;;5022845;28;1281;-68
2022/02/08 18:09:43;;;;;;;;;;;19.80;55.70;;;;;;5026764;28;1287;-71
2022/02/08 18:12:09;;;;;;;;;;;19.80;55.70;;;;;;5033337;28;1335;-68
2022/02/08 18:14:34;;;;;;;;;;;19.80;55.70;;;;;;5031758;28;1572;-71
2022/02/08 18:17:24;;;;;;;;;;;19.80;55.80;;;;;;5026733;28;2006;-70
2022/02/08 18:19:56;;;;;;;;;;;19.80;55.80;;;;;;5033308;28;1906;-69
2022/02/08 18:22:36;;;;;;;;;;;19.70;55.70;;;;;;5034238;28;1288;-67
2022/02/08 18:57:04;;;;;;;;;;;19.70;55.90;;;;;;5034208;28;1274;-67
2022/02/08 19:07:49;;;;;;;;;;;19.70;56.00;;;;;;5033512;28;1379;-70
2022/02/08 19:11:15;;;;;;;;;;;19.70;56.00;;;;;;5032070;28;1346;-70
2022/02/08 19:16:02;;;;;;;;;;;19.70;56.00;;;;;;5032916;28;1426;-68
2022/02/08 19:21:07;;;;;;;;;;;19.70;56.00;;;;;;5032863;28;1898;-67
2022/02/08 19:23:33;;;;;;;;;;;19.70;56.00;;;;;;5026162;28;1333;-69
2022/02/08 19:26:00;;;;;;;;;;;19.70;56.00;;;;;;5033583;28;1326;-68
2022/02/08 19:28:26;;;;;;;;;;;19.70;56.10;;;;;;5031553;28;1113;-66
2022/02/08 19:30:52;;;;;;;;;;;19.70;56.10;;;;;;5034969;28;1319;-69
2022/02/08 19:33:18;;;;;;;;;;;19.70;56.10;;;;;;5033459;28;1051;-68
2022/02/08 19:35:43;;;;;;;;;;;19.70;56.10;;;;;;5030754;28;2077;-68
2022/02/08 19:38:11;;;;;;;;;;;19.70;56.10;;;;;;5033586;28;1343;-68
2022/02/08 19:40:38;;;;;;;;;;;19.70;56.10;;;;;;5033344;28;1969;-68
2022/02/08 19:43:06;;;;;;;;;;;19.70;56.10;;;;;;5032475;28;1044;-67
2022/02/08 19:45:39;;;;;;;;;;;19.70;56.10;;;;;;5032808;28;1358;-69
2022/02/08 19:48:05;;;;;;;;;;;19.70;56.20;;;;;;5032056;28;1039;-68
2022/02/08 19:50:35;;;;;;;;;;;19.70;56.10;;;;;;5030959;28;1060;-68
2022/02/08 19:53:02;;;;;;;;;;;19.70;56.20;;;;;;5031617;28;1071;-68
2022/02/08 19:55:42;;;;;;;;;;;19.70;56.10;;;;;;5032857;28;1373;-69
2022/02/08 19:58:20;;;;;;;;;;;19.70;56.20;;;;;;5032968;28;1275;-69
2022/02/08 20:00:56;;;;;;;;;;;19.70;56.20;;;;;;5030330;28;1914;-67
2022/02/08 20:03:24;;;;;;;;;;;19.70;56.20;;;;;;5046466;28;1251;-67
2022/02/08 20:05:50;;;;;;;;;;;19.70;56.20;;;;;;5028437;28;1361;-67
2022/02/08 20:08:17;;;;;;;;;;;19.70;56.20;;;;;;5031946;28;1286;-67
2022/02/08 20:10:44;;;;;;;;;;;19.70;56.20;;;;;;5032336;28;1315;-66
2022/02/08 20:13:10;;;;;;;;;;;19.70;56.80;;;;;;5032484;28;1308;-67
2022/02/08 20:15:37;;;;;;;;;;;19.70;56.20;;;;;;5033186;28;1361;-67
2022/02/08 20:18:03;;;;;;;;;;;19.70;56.20;;;;;;5028097;28;1346;-67
2022/02/08 20:20:29;;;;;;;;;;;19.70;56.20;;;;;;5023086;28;2000;-65
2022/02/08 20:23:00;;;;;;;;;;;19.70;56.20;;;;;;5028236;28;1404;-66
2022/02/08 20:25:26;;;;;;;;;;;19.70;56.20;;;;;;5031824;28;1359;-66
2022/02/08 20:28:00;;;;;;;;;;;19.70;56.20;;;;;;5032576;28;1106;-67
2022/02/08 20:30:29;;;;;;;;;;;19.70;56.20;;;;;;5031377;28;1162;-66
2022/02/08 20:32:55;;;;;;;;;;;19.70;56.20;;;;;;5031329;28;1355;-67
2022/02/08 20:35:21;;;;;;;;;;;19.70;56.20;;;;;;5029651;28;1287;-66
2022/02/08 20:37:47;;;;;;;;;;;19.70;56.20;;;;;;5031407;28;1342;-66
2022/02/08 20:40:13;;;;;;;;;;;19.70;56.20;;;;;;5030544;28;1966;-67
2022/02/08 20:42:39;;;;;;;;;;;19.70;56.30;;;;;;5032530;28;1313;-66
2022/02/08 20:45:05;;;;;;;;;;;19.70;56.30;;;;;;5032573;28;1205;-68
2022/02/08 20:47:31;;;;;;;;;;;19.70;56.30;;;;;;5031713;28;1299;-67
2022/02/08 20:50:20;;;;;;;;;;;19.70;56.30;;;;;;5031658;28;1537;-70
2022/02/08 20:52:50;;;;;;;;;;;19.70;56.30;;;;;;5019462;28;1537;-69
2022/02/08 20:55:19;;;;;;;;;;;19.70;56.30;;;;;;5031193;28;1308;-69
2022/02/08 20:57:51;;;;;;;;;;;19.70;56.30;;;;;;5033572;28;1087;-69
2022/02/08 21:00:17;;;;;;;;;;;19.70;56.20;;;;;;5030426;28;1906;-69
2022/02/08 21:02:55;;;;;;;;;;;19.70;56.20;;;;;;5032450;28;1556;-66
2022/02/08 21:07:49;;;;;;;;;;;19.80;56.30;;;;;;5035459;28;1086;-69
2022/02/08 21:10:15;;;;;;;;;;;19.80;56.20;;;;;;5034051;28;1445;-68
2022/02/08 21:12:42;;;;;;;;;;;19.70;56.10;;;;;;5017865;28;1332;-67
2022/02/08 21:15:09;;;;;;;;;;;19.70;56.10;;;;;;5036403;28;1205;-68
2022/02/08 21:17:41;;;;;;;;;;;19.80;56.20;;;;;;5034568;28;1422;-68
2022/02/08 21:20:07;;;;;;;;;;;19.80;56.20;;;;;;5035761;28;1886;-66
2022/02/08 21:22:33;;;;;;;;;;;19.80;56.20;;;;;;5034530;28;1085;-67
2022/02/08 21:24:58;;;;;;;;;;;19.80;56.20;;;;;;5034526;28;1689;-67
2022/02/08 21:27:27;;;;;;;;;;;19.80;56.20;;;;;;5036005;28;1335;-66
2022/02/08 21:30:04;;;;;;;;;;;19.80;56.20;;;;;;5034343;28;1355;-67
2022/02/08 21:43:33;;;;;;;;;;;19.80;56.20;;;;;;5034898;28;1318;-67
2022/02/08 21:54:32;;;;;;;;;;;19.70;56.30;;;;;;5023704;28;1486;-68
2022/02/08 21:56:59;;;;;;;;;;;19.70;56.30;;;;;;5034914;28;1349;-68
2022/02/08 21:59:25;;;;;;;;;;;19.70;56.40;;;;;;5034715;28;1973;-70
2022/02/08 22:01:50;;;;;;;;;;;19.70;56.40;;;;;;5033937;28;1423;-68
2022/02/08 22:04:16;;;;;;;;;;;19.70;56.40;;;;;;5046900;28;1303;-69
2022/02/08 22:06:44;;;;;;;;;;;19.70;56.50;;;;;;5031337;28;1366;-69
2022/02/08 22:09:15;;;;;;;;;;;19.60;56.40;;;;;;5034065;28;1122;-67
2022/02/08 22:22:43;;;;;;;;;;;19.60;56.70;;;;;;5034813;28;1302;-68